sensor_id;sensor_type;location;lat;lon;timestamp;temperature;humidity
35445;DHT22;21562;49.476;6.086;2022-07-01T00:01:26;15.00;99.90
35445;DHT22;21562;49.476;6.086;2022-07-01T00:03:51;14.80;99.90
35445;DHT22;21562;49.476;6.086;2022-07-01T00:06:18;14.90;99.90
35445;DHT22;21562;49.476;6.086;2022-07-01T00:08:44;15.30;99.90
35445;DHT22;21562;49.476;6.086;2022-07-01T00:11:10;15.20;99.90
35445;DHT22;21562;49.476;6.086;2022-07-01T00:13:35;15.20;99.90
35445;DHT22;21562;49.476;6.086;2022-07-01T00:16:01;15.20;99.90
35445;DHT22;21562;49.476;6.086;2022-07-01T00:18:27;15.30;99.90
35445;DHT22;21562;49.476;6.086;2022-07-01T00:20:52;15.30;99.90
35445;DHT22;21562;49.476;6.086;2022-07-01T00:23:18;15.30;99.90
35445;DHT22;21562;49.476;6.086;2022-07-01T00:25:44;15.10;99.90
35445;DHT22;21562;49.476;6.086;2022-07-01T00:28:10;15.00;99.90
35445;DHT22;21562;49.476;6.086;2022-07-01T00:30:36;14.90;99.90
35445;DHT22;21562;49.476;6.086;2022-07-01T00:33:02;14.90;99.90
35445;DHT22;21562;49.476;6.086;2022-07-01T00:35:28;15.00;99.90
35445;DHT22;21562;49.476;6.086;2022-07-01T00:37:54;14.80;99.90
35445;DHT22;21562;49.476;6.086;2022-07-01T00:40:20;14.80;99.90
35445;DHT22;21562;49.476;6.086;2022-07-01T00:42:45;14.50;99.90
35445;DHT22;21562;49.476;6.086;2022-07-01T00:45:12;14.40;99.90
35445;DHT22;21562;49.476;6.086;2022-07-01T00:47:40;14.90;99.90
35445;DHT22;21562;49.476;6.086;2022-07-01T00:50:08;14.80;99.90
35445;DHT22;21562;49.476;6.086;2022-07-01T00:52:34;15.00;99.90
35445;DHT22;21562;49.476;6.086;2022-07-01T00:55:02;15.00;99.90
35445;DHT22;21562;49.476;6.086;2022-07-01T00:57:33;14.90;99.90
35445;DHT22;21562;49.476;6.086;2022-07-01T01:00:02;14.80;99.90
35445;DHT22;21562;49.476;6.086;2022-07-01T01:02:28;14.90;99.90
35445;DHT22;21562;49.476;6.086;2022-07-01T01:04:54;15.00;99.90
35445;DHT22;21562;49.476;6.086;2022-07-01T01:07:19;14.90;99.90
35445;DHT22;21562;49.476;6.086;2022-07-01T01:09:45;15.10;99.90
35445;DHT22;21562;49.476;6.086;2022-07-01T01:12:12;14.90;99.90
35445;DHT22;21562;49.476;6.086;2022-07-01T01:14:47;14.80;99.90
35445;DHT22;21562;49.476;6.086;2022-07-01T01:17:14;15.00;99.90
35445;DHT22;21562;49.476;6.086;2022-07-01T01:19:41;14.80;99.90
35445;DHT22;21562;49.476;6.086;2022-07-01T01:22:08;15.20;99.90
35445;DHT22;21562;49.476;6.086;2022-07-01T01:24:35;15.40;99.90
35445;DHT22;21562;49.476;6.086;2022-07-01T01:27:03;15.30;99.90
35445;DHT22;21562;49.476;6.086;2022-07-01T01:29:28;15.60;99.90
35445;DHT22;21562;49.476;6.086;2022-07-01T01:31:54;15.70;99.90
35445;DHT22;21562;49.476;6.086;2022-07-01T01:34:20;15.70;99.90
35445;DHT22;21562;49.476;6.086;2022-07-01T01:36:46;15.80;99.90
35445;DHT22;21562;49.476;6.086;2022-07-01T01:39:11;15.90;99.90
35445;DHT22;21562;49.476;6.086;2022-07-01T01:41:41;15.90;99.90
35445;DHT22;21562;49.476;6.086;2022-07-01T01:44:07;15.90;99.90
35445;DHT22;21562;49.476;6.086;2022-07-01T01:46:33;15.90;99.90
35445;DHT22;21562;49.476;6.086;2022-07-01T01:49:00;15.40;99.90
35445;DHT22;21562;49.476;6.086;2022-07-01T01:51:26;14.90;99.90
35445;DHT22;21562;49.476;6.086;2022-07-01T01:53:51;15.00;99.90
35445;DHT22;21562;49.476;6.086;2022-07-01T01:56:17;15.10;99.90
35445;DHT22;21562;49.476;6.086;2022-07-01T01:58:43;15.10;99.90
35445;DHT22;21562;49.476;6.086;2022-07-01T02:01:13;15.20;99.90
35445;DHT22;21562;49.476;6.086;2022-07-01T02:03:39;14.80;99.90
35445;DHT22;21562;49.476;6.086;2022-07-01T02:06:06;15.10;99.90
35445;DHT22;21562;49.476;6.086;2022-07-01T02:08:32;15.20;99.90
35445;DHT22;21562;49.476;6.086;2022-07-01T02:10:58;15.40;99.90
35445;DHT22;21562;49.476;6.086;2022-07-01T02:13:24;15.10;99.90
35445;DHT22;21562;49.476;6.086;2022-07-01T02:15:50;15.10;99.90
35445;DHT22;21562;49.476;6.086;2022-07-01T02:18:16;14.90;99.90
35445;DHT22;21562;49.476;6.086;2022-07-01T02:20:42;15.00;99.90
35445;DHT22;21562;49.476;6.086;2022-07-01T02:23:09;14.80;99.90
35445;DHT22;21562;49.476;6.086;2022-07-01T02:25:35;15.00;99.90
35445;DHT22;21562;49.476;6.086;2022-07-01T02:28:01;15.30;99.90
35445;DHT22;21562;49.476;6.086;2022-07-01T02:30:27;15.50;99.90
35445;DHT22;21562;49.476;6.086;2022-07-01T02:32:53;15.80;99.90
35445;DHT22;21562;49.476;6.086;2022-07-01T02:35:19;16.10;99.90
35445;DHT22;21562;49.476;6.086;2022-07-01T02:37:45;16.20;99.90
35445;DHT22;21562;49.476;6.086;2022-07-01T02:40:11;16.50;99.90
35445;DHT22;21562;49.476;6.086;2022-07-01T02:42:38;16.10;99.90
35445;DHT22;21562;49.476;6.086;2022-07-01T02:45:05;15.70;99.90
35445;DHT22;21562;49.476;6.086;2022-07-01T02:47:33;15.30;99.90
35445;DHT22;21562;49.476;6.086;2022-07-01T02:49:59;14.90;99.90
35445;DHT22;21562;49.476;6.086;2022-07-01T02:52:24;15.30;99.90
35445;DHT22;21562;49.476;6.086;2022-07-01T02:54:50;15.10;99.90
35445;DHT22;21562;49.476;6.086;2022-07-01T02:57:15;15.40;99.90
35445;DHT22;21562;49.476;6.086;2022-07-01T02:59:41;15.40;99.90
35445;DHT22;21562;49.476;6.086;2022-07-01T03:02:07;15.60;99.90
35445;DHT22;21562;49.476;6.086;2022-07-01T03:04:32;15.70;99.90
35445;DHT22;21562;49.476;6.086;2022-07-01T03:06:58;15.80;99.90
35445;DHT22;21562;49.476;6.086;2022-07-01T03:09:24;15.80;99.90
35445;DHT22;21562;49.476;6.086;2022-07-01T03:11:50;15.70;99.90
35445;DHT22;21562;49.476;6.086;2022-07-01T03:14:15;15.50;99.90
35445;DHT22;21562;49.476;6.086;2022-07-01T03:16:41;15.50;99.90
35445;DHT22;21562;49.476;6.086;2022-07-01T03:19:07;15.70;99.90
35445;DHT22;21562;49.476;6.086;2022-07-01T03:21:32;15.80;99.90
35445;DHT22;21562;49.476;6.086;2022-07-01T03:23:58;15.60;99.90
35445;DHT22;21562;49.476;6.086;2022-07-01T03:26:24;15.00;99.90
35445;DHT22;21562;49.476;6.086;2022-07-01T03:28:49;15.20;99.90
35445;DHT22;21562;49.476;6.086;2022-07-01T03:31:15;14.80;99.90
35445;DHT22;21562;49.476;6.086;2022-07-01T03:33:41;14.90;99.90
35445;DHT22;21562;49.476;6.086;2022-07-01T03:36:07;15.00;99.90
35445;DHT22;21562;49.476;6.086;2022-07-01T03:38:32;15.10;99.90
35445;DHT22;21562;49.476;6.086;2022-07-01T03:40:58;14.80;99.90
35445;DHT22;21562;49.476;6.086;2022-07-01T03:43:23;14.90;99.90
35445;DHT22;21562;49.476;6.086;2022-07-01T03:45:49;14.70;99.90
35445;DHT22;21562;49.476;6.086;2022-07-01T03:48:15;14.60;99.90
35445;DHT22;21562;49.476;6.086;2022-07-01T03:50:41;14.60;99.90
35445;DHT22;21562;49.476;6.086;2022-07-01T03:53:07;14.40;99.90
35445;DHT22;21562;49.476;6.086;2022-07-01T03:55:51;14.40;99.90
35445;DHT22;21562;49.476;6.086;2022-07-01T03:58:16;14.30;99.90
35445;DHT22;21562;49.476;6.086;2022-07-01T04:00:42;14.50;99.90
35445;DHT22;21562;49.476;6.086;2022-07-01T04:03:08;14.30;99.90
35445;DHT22;21562;49.476;6.086;2022-07-01T04:05:36;14.40;99.90
35445;DHT22;21562;49.476;6.086;2022-07-01T04:08:06;14.30;99.90
35445;DHT22;21562;49.476;6.086;2022-07-01T04:10:33;14.20;99.90
35445;DHT22;21562;49.476;6.086;2022-07-01T04:13:00;14.20;99.90
35445;DHT22;21562;49.476;6.086;2022-07-01T04:15:26;14.30;99.90
35445;DHT22;21562;49.476;6.086;2022-07-01T04:17:52;14.50;99.90
35445;DHT22;21562;49.476;6.086;2022-07-01T04:20:18;14.50;99.90
35445;DHT22;21562;49.476;6.086;2022-07-01T04:22:43;14.60;99.90
35445;DHT22;21562;49.476;6.086;2022-07-01T04:25:09;14.70;99.90
35445;DHT22;21562;49.476;6.086;2022-07-01T04:27:35;14.70;99.90
35445;DHT22;21562;49.476;6.086;2022-07-01T04:30:01;14.70;99.90
35445;DHT22;21562;49.476;6.086;2022-07-01T04:32:29;14.50;99.90
35445;DHT22;21562;49.476;6.086;2022-07-01T04:34:56;14.60;99.90
35445;DHT22;21562;49.476;6.086;2022-07-01T04:37:22;14.80;99.90
35445;DHT22;21562;49.476;6.086;2022-07-01T04:39:48;14.80;99.90
35445;DHT22;21562;49.476;6.086;2022-07-01T04:42:13;14.70;99.90
35445;DHT22;21562;49.476;6.086;2022-07-01T04:44:41;14.70;99.90
35445;DHT22;21562;49.476;6.086;2022-07-01T04:47:07;14.70;99.90
35445;DHT22;21562;49.476;6.086;2022-07-01T04:49:33;14.70;99.90
35445;DHT22;21562;49.476;6.086;2022-07-01T04:51:59;14.70;99.90
35445;DHT22;21562;49.476;6.086;2022-07-01T04:54:25;14.70;99.90
35445;DHT22;21562;49.476;6.086;2022-07-01T04:56:51;14.70;99.90
35445;DHT22;21562;49.476;6.086;2022-07-01T04:59:18;14.70;99.90
35445;DHT22;21562;49.476;6.086;2022-07-01T05:01:45;14.70;99.90
35445;DHT22;21562;49.476;6.086;2022-07-01T05:04:11;14.40;99.90
35445;DHT22;21562;49.476;6.086;2022-07-01T05:06:37;14.40;99.90
35445;DHT22;21562;49.476;6.086;2022-07-01T05:09:03;14.50;99.90
35445;DHT22;21562;49.476;6.086;2022-07-01T05:11:28;14.60;99.90
35445;DHT22;21562;49.476;6.086;2022-07-01T05:13:54;14.60;99.90
35445;DHT22;21562;49.476;6.086;2022-07-01T05:16:20;14.40;99.90
35445;DHT22;21562;49.476;6.086;2022-07-01T05:18:46;14.40;99.90
35445;DHT22;21562;49.476;6.086;2022-07-01T05:21:30;14.50;99.90
35445;DHT22;21562;49.476;6.086;2022-07-01T05:24:14;14.70;99.90
35445;DHT22;21562;49.476;6.086;2022-07-01T05:26:40;15.10;99.90
35445;DHT22;21562;49.476;6.086;2022-07-01T05:29:05;14.90;99.90
35445;DHT22;21562;49.476;6.086;2022-07-01T05:31:31;15.00;99.90
35445;DHT22;21562;49.476;6.086;2022-07-01T05:33:57;15.20;99.90
35445;DHT22;21562;49.476;6.086;2022-07-01T05:36:22;15.20;99.90
35445;DHT22;21562;49.476;6.086;2022-07-01T05:38:48;15.20;99.90
35445;DHT22;21562;49.476;6.086;2022-07-01T05:41:14;15.20;99.90
35445;DHT22;21562;49.476;6.086;2022-07-01T05:43:41;15.40;99.90
35445;DHT22;21562;49.476;6.086;2022-07-01T05:46:06;15.30;99.90
35445;DHT22;21562;49.476;6.086;2022-07-01T05:48:32;15.30;99.90
35445;DHT22;21562;49.476;6.086;2022-07-01T05:50:57;15.20;99.90
35445;DHT22;21562;49.476;6.086;2022-07-01T05:53:23;15.50;99.90
35445;DHT22;21562;49.476;6.086;2022-07-01T05:55:49;15.60;99.90
35445;DHT22;21562;49.476;6.086;2022-07-01T05:58:15;15.80;99.90
35445;DHT22;21562;49.476;6.086;2022-07-01T06:00:42;16.10;99.90
35445;DHT22;21562;49.476;6.086;2022-07-01T06:03:09;15.80;99.90
35445;DHT22;21562;49.476;6.086;2022-07-01T06:05:34;15.90;99.90
35445;DHT22;21562;49.476;6.086;2022-07-01T06:08:00;15.90;99.90
35445;DHT22;21562;49.476;6.086;2022-07-01T06:10:26;15.80;99.90
35445;DHT22;21562;49.476;6.086;2022-07-01T06:12:51;15.80;99.90
35445;DHT22;21562;49.476;6.086;2022-07-01T06:15:17;15.60;99.90
35445;DHT22;21562;49.476;6.086;2022-07-01T06:17:43;15.40;99.90
35445;DHT22;21562;49.476;6.086;2022-07-01T06:20:09;15.60;99.90
35445;DHT22;21562;49.476;6.086;2022-07-01T06:22:35;15.40;99.90
35445;DHT22;21562;49.476;6.086;2022-07-01T06:25:01;15.50;99.90
35445;DHT22;21562;49.476;6.086;2022-07-01T06:27:28;15.40;99.90
35445;DHT22;21562;49.476;6.086;2022-07-01T06:29:54;15.60;99.90
35445;DHT22;21562;49.476;6.086;2022-07-01T06:32:19;15.60;99.90
35445;DHT22;21562;49.476;6.086;2022-07-01T06:34:45;15.70;99.90
35445;DHT22;21562;49.476;6.086;2022-07-01T06:37:12;15.60;99.90
35445;DHT22;21562;49.476;6.086;2022-07-01T06:39:37;15.50;99.90
35445;DHT22;21562;49.476;6.086;2022-07-01T06:42:03;15.70;99.90
35445;DHT22;21562;49.476;6.086;2022-07-01T06:44:29;15.80;99.90
35445;DHT22;21562;49.476;6.086;2022-07-01T06:46:55;15.90;99.90
35445;DHT22;21562;49.476;6.086;2022-07-01T06:49:20;16.00;99.90
35445;DHT22;21562;49.476;6.086;2022-07-01T06:51:46;15.50;99.90
35445;DHT22;21562;49.476;6.086;2022-07-01T06:54:12;15.60;99.90
35445;DHT22;21562;49.476;6.086;2022-07-01T06:56:38;15.90;99.90
35445;DHT22;21562;49.476;6.086;2022-07-01T06:59:03;15.80;99.90
35445;DHT22;21562;49.476;6.086;2022-07-01T07:01:29;15.80;99.90
35445;DHT22;21562;49.476;6.086;2022-07-01T07:03:55;15.80;99.90
35445;DHT22;21562;49.476;6.086;2022-07-01T07:06:21;15.60;99.90
35445;DHT22;21562;49.476;6.086;2022-07-01T07:08:47;15.50;99.90
35445;DHT22;21562;49.476;6.086;2022-07-01T07:11:13;15.90;99.90
35445;DHT22;21562;49.476;6.086;2022-07-01T07:13:40;15.90;99.90
35445;DHT22;21562;49.476;6.086;2022-07-01T07:16:06;15.90;99.90
35445;DHT22;21562;49.476;6.086;2022-07-01T07:18:31;15.80;99.90
35445;DHT22;21562;49.476;6.086;2022-07-01T07:20:57;16.00;99.90
35445;DHT22;21562;49.476;6.086;2022-07-01T07:23:23;16.10;99.90
35445;DHT22;21562;49.476;6.086;2022-07-01T07:25:48;16.20;99.90
35445;DHT22;21562;49.476;6.086;2022-07-01T07:28:14;16.20;99.90
35445;DHT22;21562;49.476;6.086;2022-07-01T07:30:40;16.00;99.90
35445;DHT22;21562;49.476;6.086;2022-07-01T07:33:05;16.00;99.90
35445;DHT22;21562;49.476;6.086;2022-07-01T07:35:31;16.30;99.90
35445;DHT22;21562;49.476;6.086;2022-07-01T07:37:57;16.50;99.90
35445;DHT22;21562;49.476;6.086;2022-07-01T07:40:22;16.40;99.90
35445;DHT22;21562;49.476;6.086;2022-07-01T07:42:48;16.40;99.90
35445;DHT22;21562;49.476;6.086;2022-07-01T07:45:15;16.30;99.90
35445;DHT22;21562;49.476;6.086;2022-07-01T07:47:48;16.10;99.90
35445;DHT22;21562;49.476;6.086;2022-07-01T07:50:14;16.00;99.90
35445;DHT22;21562;49.476;6.086;2022-07-01T07:52:41;16.10;99.90
35445;DHT22;21562;49.476;6.086;2022-07-01T07:55:08;16.20;99.90
35445;DHT22;21562;49.476;6.086;2022-07-01T07:57:36;16.30;99.90
35445;DHT22;21562;49.476;6.086;2022-07-01T08:00:02;16.40;99.90
35445;DHT22;21562;49.476;6.086;2022-07-01T08:02:29;16.60;99.90
35445;DHT22;21562;49.476;6.086;2022-07-01T08:04:54;16.60;99.90
35445;DHT22;21562;49.476;6.086;2022-07-01T08:07:20;16.60;99.90
35445;DHT22;21562;49.476;6.086;2022-07-01T08:09:46;16.60;99.90
35445;DHT22;21562;49.476;6.086;2022-07-01T08:12:15;16.30;99.90
35445;DHT22;21562;49.476;6.086;2022-07-01T08:14:40;16.50;99.90
35445;DHT22;21562;49.476;6.086;2022-07-01T08:17:06;17.20;99.90
35445;DHT22;21562;49.476;6.086;2022-07-01T08:19:32;16.60;99.90
35445;DHT22;21562;49.476;6.086;2022-07-01T08:21:57;16.90;99.90
35445;DHT22;21562;49.476;6.086;2022-07-01T08:24:23;17.00;99.90
35445;DHT22;21562;49.476;6.086;2022-07-01T08:26:49;17.00;99.90
35445;DHT22;21562;49.476;6.086;2022-07-01T08:29:14;17.00;99.90
35445;DHT22;21562;49.476;6.086;2022-07-01T08:31:40;17.10;99.90
35445;DHT22;21562;49.476;6.086;2022-07-01T08:34:06;17.30;99.90
35445;DHT22;21562;49.476;6.086;2022-07-01T08:36:33;17.50;99.90
35445;DHT22;21562;49.476;6.086;2022-07-01T08:38:58;17.80;99.90
35445;DHT22;21562;49.476;6.086;2022-07-01T08:41:24;18.30;99.90
35445;DHT22;21562;49.476;6.086;2022-07-01T08:43:50;18.40;99.90
35445;DHT22;21562;49.476;6.086;2022-07-01T08:46:15;18.70;99.90
35445;DHT22;21562;49.476;6.086;2022-07-01T08:48:44;18.50;99.90
35445;DHT22;21562;49.476;6.086;2022-07-01T08:51:11;17.60;99.90
35445;DHT22;21562;49.476;6.086;2022-07-01T08:53:37;17.30;99.90
35445;DHT22;21562;49.476;6.086;2022-07-01T08:56:03;17.30;99.90
35445;DHT22;21562;49.476;6.086;2022-07-01T08:58:51;17.60;99.90
35445;DHT22;21562;49.476;6.086;2022-07-01T09:01:24;17.60;99.90
35445;DHT22;21562;49.476;6.086;2022-07-01T09:03:56;17.90;99.90
35445;DHT22;21562;49.476;6.086;2022-07-01T09:06:29;18.10;99.90
35445;DHT22;21562;49.476;6.086;2022-07-01T09:08:55;18.00;99.90
35445;DHT22;21562;49.476;6.086;2022-07-01T09:11:35;17.90;99.90
35445;DHT22;21562;49.476;6.086;2022-07-01T09:14:15;18.40;99.90
35445;DHT22;21562;49.476;6.086;2022-07-01T09:16:47;18.50;99.90
35445;DHT22;21562;49.476;6.086;2022-07-01T09:19:15;18.70;99.90
35445;DHT22;21562;49.476;6.086;2022-07-01T09:21:43;19.10;99.90
35445;DHT22;21562;49.476;6.086;2022-07-01T09:24:32;19.40;99.90
35445;DHT22;21562;49.476;6.086;2022-07-01T09:26:59;19.80;99.90
35445;DHT22;21562;49.476;6.086;2022-07-01T09:29:35;19.80;99.90
35445;DHT22;21562;49.476;6.086;2022-07-01T09:32:03;19.40;99.90
35445;DHT22;21562;49.476;6.086;2022-07-01T09:37:00;19.50;99.90
35445;DHT22;21562;49.476;6.086;2022-07-01T09:39:27;19.50;99.90
35445;DHT22;21562;49.476;6.086;2022-07-01T09:41:56;19.90;99.90
35445;DHT22;21562;49.476;6.086;2022-07-01T09:44:23;20.00;99.90
35445;DHT22;21562;49.476;6.086;2022-07-01T09:46:53;20.00;99.90
35445;DHT22;21562;49.476;6.086;2022-07-01T09:49:22;20.00;99.90
35445;DHT22;21562;49.476;6.086;2022-07-01T09:51:50;20.00;99.90
35445;DHT22;21562;49.476;6.086;2022-07-01T09:54:17;20.50;99.90
35445;DHT22;21562;49.476;6.086;2022-07-01T09:56:44;20.60;99.90
35445;DHT22;21562;49.476;6.086;2022-07-01T09:59:11;21.00;99.90
35445;DHT22;21562;49.476;6.086;2022-07-01T10:01:38;21.10;99.90
35445;DHT22;21562;49.476;6.086;2022-07-01T10:04:07;21.50;99.90
35445;DHT22;21562;49.476;6.086;2022-07-01T10:12:35;19.90;99.90
35445;DHT22;21562;49.476;6.086;2022-07-01T10:15:00;19.40;99.90
35445;DHT22;21562;49.476;6.086;2022-07-01T10:17:31;20.20;99.90
35445;DHT22;21562;49.476;6.086;2022-07-01T10:20:09;20.00;99.90
35445;DHT22;21562;49.476;6.086;2022-07-01T10:22:37;20.50;99.90
35445;DHT22;21562;49.476;6.086;2022-07-01T10:25:38;20.30;99.90
35445;DHT22;21562;49.476;6.086;2022-07-01T10:28:24;20.70;99.90
35445;DHT22;21562;49.476;6.086;2022-07-01T10:44:11;20.60;98.20
35445;DHT22;21562;49.476;6.086;2022-07-01T10:46:49;21.00;97.80
35445;DHT22;21562;49.476;6.086;2022-07-01T10:49:51;21.50;96.80
35445;DHT22;21562;49.476;6.086;2022-07-01T10:52:16;21.80;96.90
35445;DHT22;21562;49.476;6.086;2022-07-01T10:54:47;21.40;96.60
35445;DHT22;21562;49.476;6.086;2022-07-01T11:02:45;21.00;97.50
35445;DHT22;21562;49.476;6.086;2022-07-01T11:05:13;21.20;96.40
35445;DHT22;21562;49.476;6.086;2022-07-01T11:07:41;20.90;95.60
35445;DHT22;21562;49.476;6.086;2022-07-01T11:10:12;20.80;95.40
35445;DHT22;21562;49.476;6.086;2022-07-01T11:12:38;20.70;95.50
35445;DHT22;21562;49.476;6.086;2022-07-01T11:15:06;20.80;95.90
35445;DHT22;21562;49.476;6.086;2022-07-01T11:17:32;21.10;96.10
35445;DHT22;21562;49.476;6.086;2022-07-01T11:19:59;21.40;95.20
35445;DHT22;21562;49.476;6.086;2022-07-01T11:22:29;21.40;94.40
35445;DHT22;21562;49.476;6.086;2022-07-01T11:24:57;21.50;94.10
35445;DHT22;21562;49.476;6.086;2022-07-01T11:27:24;21.30;93.80
35445;DHT22;21562;49.476;6.086;2022-07-01T11:29:58;20.90;94.90
35445;DHT22;21562;49.476;6.086;2022-07-01T11:32:38;20.90;95.30
35445;DHT22;21562;49.476;6.086;2022-07-01T11:35:08;20.70;95.90
35445;DHT22;21562;49.476;6.086;2022-07-01T11:38:11;20.70;95.90
35445;DHT22;21562;49.476;6.086;2022-07-01T11:40:58;21.20;95.50
35445;DHT22;21562;49.476;6.086;2022-07-01T11:43:29;21.30;93.60
35445;DHT22;21562;49.476;6.086;2022-07-01T11:45:57;20.50;93.70
35445;DHT22;21562;49.476;6.086;2022-07-01T11:48:46;20.50;93.80
35445;DHT22;21562;49.476;6.086;2022-07-01T11:51:17;20.80;94.20
35445;DHT22;21562;49.476;6.086;2022-07-01T11:53:47;21.40;93.70
35445;DHT22;21562;49.476;6.086;2022-07-01T11:56:31;21.50;93.70
35445;DHT22;21562;49.476;6.086;2022-07-01T11:58:57;21.50;93.80
35445;DHT22;21562;49.476;6.086;2022-07-01T12:03:53;21.20;91.80
35445;DHT22;21562;49.476;6.086;2022-07-01T12:06:19;21.20;92.20
35445;DHT22;21562;49.476;6.086;2022-07-01T12:08:48;21.30;92.70
35445;DHT22;21562;49.476;6.086;2022-07-01T12:11:16;21.50;92.00
35445;DHT22;21562;49.476;6.086;2022-07-01T12:13:44;21.40;92.70
35445;DHT22;21562;49.476;6.086;2022-07-01T12:16:11;21.70;92.40
35445;DHT22;21562;49.476;6.086;2022-07-01T12:18:37;22.30;92.50
35445;DHT22;21562;49.476;6.086;2022-07-01T12:21:03;22.10;91.50
35445;DHT22;21562;49.476;6.086;2022-07-01T12:23:29;22.20;92.50
35445;DHT22;21562;49.476;6.086;2022-07-01T12:25:55;21.60;91.50
35445;DHT22;21562;49.476;6.086;2022-07-01T12:28:29;21.70;91.90
35445;DHT22;21562;49.476;6.086;2022-07-01T12:31:09;21.80;92.20
35445;DHT22;21562;49.476;6.086;2022-07-01T12:33:40;21.50;90.50
35445;DHT22;21562;49.476;6.086;2022-07-01T12:36:13;21.90;90.50
35445;DHT22;21562;49.476;6.086;2022-07-01T12:38:41;21.60;91.50
35445;DHT22;21562;49.476;6.086;2022-07-01T12:41:26;21.60;90.80
35445;DHT22;21562;49.476;6.086;2022-07-01T12:43:52;22.40;91.40
35445;DHT22;21562;49.476;6.086;2022-07-01T12:46:30;22.60;90.00
35445;DHT22;21562;49.476;6.086;2022-07-01T12:48:57;22.20;88.70
35445;DHT22;21562;49.476;6.086;2022-07-01T12:51:31;22.50;91.10
35445;DHT22;21562;49.476;6.086;2022-07-01T12:53:57;22.40;90.80
35445;DHT22;21562;49.476;6.086;2022-07-01T12:56:24;22.00;90.50
35445;DHT22;21562;49.476;6.086;2022-07-01T12:58:50;22.00;90.00
35445;DHT22;21562;49.476;6.086;2022-07-01T13:01:18;22.20;90.80
35445;DHT22;21562;49.476;6.086;2022-07-01T13:03:45;21.90;91.00
35445;DHT22;21562;49.476;6.086;2022-07-01T13:06:11;21.60;90.30
35445;DHT22;21562;49.476;6.086;2022-07-01T13:08:36;21.60;90.10
35445;DHT22;21562;49.476;6.086;2022-07-01T13:11:02;21.50;91.30
35445;DHT22;21562;49.476;6.086;2022-07-01T13:13:28;21.10;91.60
35445;DHT22;21562;49.476;6.086;2022-07-01T13:15:54;21.10;92.20
35445;DHT22;21562;49.476;6.086;2022-07-01T13:18:21;21.40;92.80
35445;DHT22;21562;49.476;6.086;2022-07-01T13:20:47;21.80;94.20
35445;DHT22;21562;49.476;6.086;2022-07-01T13:23:13;22.00;91.80
35445;DHT22;21562;49.476;6.086;2022-07-01T13:25:39;21.90;91.30
35445;DHT22;21562;49.476;6.086;2022-07-01T13:28:06;21.00;93.50
35445;DHT22;21562;49.476;6.086;2022-07-01T13:30:32;20.50;95.00
35445;DHT22;21562;49.476;6.086;2022-07-01T13:32:58;20.20;95.30
35445;DHT22;21562;49.476;6.086;2022-07-01T13:35:24;20.20;95.60
35445;DHT22;21562;49.476;6.086;2022-07-01T13:37:50;19.90;96.30
35445;DHT22;21562;49.476;6.086;2022-07-01T13:40:16;19.90;97.20
35445;DHT22;21562;49.476;6.086;2022-07-01T13:42:42;19.60;97.70
35445;DHT22;21562;49.476;6.086;2022-07-01T13:45:08;19.50;98.10
35445;DHT22;21562;49.476;6.086;2022-07-01T13:47:34;19.40;98.00
35445;DHT22;21562;49.476;6.086;2022-07-01T13:50:00;19.50;98.30
35445;DHT22;21562;49.476;6.086;2022-07-01T13:52:26;19.70;98.40
35445;DHT22;21562;49.476;6.086;2022-07-01T13:54:54;19.70;97.90
35445;DHT22;21562;49.476;6.086;2022-07-01T13:57:21;19.90;97.60
35445;DHT22;21562;49.476;6.086;2022-07-01T13:59:47;19.80;97.10
35445;DHT22;21562;49.476;6.086;2022-07-01T14:02:12;20.00;96.70
35445;DHT22;21562;49.476;6.086;2022-07-01T14:04:39;19.80;96.30
35445;DHT22;21562;49.476;6.086;2022-07-01T14:07:04;19.70;96.70
35445;DHT22;21562;49.476;6.086;2022-07-01T14:09:31;19.60;96.50
35445;DHT22;21562;49.476;6.086;2022-07-01T14:11:57;19.70;96.60
35445;DHT22;21562;49.476;6.086;2022-07-01T14:14:22;20.10;96.40
35445;DHT22;21562;49.476;6.086;2022-07-01T14:16:48;20.10;95.70
35445;DHT22;21562;49.476;6.086;2022-07-01T14:19:14;20.20;96.00
35445;DHT22;21562;49.476;6.086;2022-07-01T14:21:39;20.10;96.20
35445;DHT22;21562;49.476;6.086;2022-07-01T14:24:05;20.30;95.50
35445;DHT22;21562;49.476;6.086;2022-07-01T14:26:31;20.40;95.70
35445;DHT22;21562;49.476;6.086;2022-07-01T14:28:57;20.90;95.10
35445;DHT22;21562;49.476;6.086;2022-07-01T14:31:22;21.10;92.20
35445;DHT22;21562;49.476;6.086;2022-07-01T14:33:48;21.10;92.80
35445;DHT22;21562;49.476;6.086;2022-07-01T14:36:14;21.40;91.90
35445;DHT22;21562;49.476;6.086;2022-07-01T14:38:39;21.50;90.40
35445;DHT22;21562;49.476;6.086;2022-07-01T14:41:05;21.20;90.20
35445;DHT22;21562;49.476;6.086;2022-07-01T14:43:31;21.30;89.40
35445;DHT22;21562;49.476;6.086;2022-07-01T14:45:57;21.20;88.90
35445;DHT22;21562;49.476;6.086;2022-07-01T14:48:23;21.10;88.60
35445;DHT22;21562;49.476;6.086;2022-07-01T14:50:49;20.90;88.50
35445;DHT22;21562;49.476;6.086;2022-07-01T14:53:14;21.10;89.40
35445;DHT22;21562;49.476;6.086;2022-07-01T14:55:40;21.10;90.00
35445;DHT22;21562;49.476;6.086;2022-07-01T14:58:06;21.40;90.00
35445;DHT22;21562;49.476;6.086;2022-07-01T15:00:32;21.60;88.70
35445;DHT22;21562;49.476;6.086;2022-07-01T15:03:03;21.60;88.80
35445;DHT22;21562;49.476;6.086;2022-07-01T15:05:29;21.40;89.50
35445;DHT22;21562;49.476;6.086;2022-07-01T15:07:55;21.70;90.90
35445;DHT22;21562;49.476;6.086;2022-07-01T15:10:21;22.20;91.80
35445;DHT22;21562;49.476;6.086;2022-07-01T15:12:46;22.40;90.30
35445;DHT22;21562;49.476;6.086;2022-07-01T15:15:12;22.30;90.70
35445;DHT22;21562;49.476;6.086;2022-07-01T15:17:43;22.40;88.80
35445;DHT22;21562;49.476;6.086;2022-07-01T15:20:10;22.60;88.50
35445;DHT22;21562;49.476;6.086;2022-07-01T15:22:36;22.20;89.30
35445;DHT22;21562;49.476;6.086;2022-07-01T15:25:01;22.30;90.30
35445;DHT22;21562;49.476;6.086;2022-07-01T15:27:27;22.20;90.00
35445;DHT22;21562;49.476;6.086;2022-07-01T15:29:53;22.20;90.30
35445;DHT22;21562;49.476;6.086;2022-07-01T15:32:18;22.00;90.20
35445;DHT22;21562;49.476;6.086;2022-07-01T15:34:44;22.60;90.40
35445;DHT22;21562;49.476;6.086;2022-07-01T15:37:11;22.70;90.00
35445;DHT22;21562;49.476;6.086;2022-07-01T15:39:37;22.80;88.30
35445;DHT22;21562;49.476;6.086;2022-07-01T15:42:03;22.70;87.90
35445;DHT22;21562;49.476;6.086;2022-07-01T15:44:33;22.80;86.00
35445;DHT22;21562;49.476;6.086;2022-07-01T15:46:58;22.50;87.10
35445;DHT22;21562;49.476;6.086;2022-07-01T15:49:44;22.40;88.60
35445;DHT22;21562;49.476;6.086;2022-07-01T15:52:10;22.20;88.70
35445;DHT22;21562;49.476;6.086;2022-07-01T15:54:36;22.20;88.70
35445;DHT22;21562;49.476;6.086;2022-07-01T15:57:02;22.20;89.10
35445;DHT22;21562;49.476;6.086;2022-07-01T15:59:28;22.10;88.80
35445;DHT22;21562;49.476;6.086;2022-07-01T16:01:54;22.20;90.00